createdAt,value
2023-05-18T00:00:11.588Z,101253.41
2023-05-18T00:02:40.832Z,101257.66
2023-05-18T00:05:10.363Z,101257.53
2023-05-18T00:07:41.172Z,101257.38
2023-05-18T00:10:11.652Z,101252.03
2023-05-18T00:12:40.230Z,101251.84
2023-05-18T00:15:10.520Z,101246.47
2023-05-18T00:17:39.466Z,101253.34
2023-05-18T00:20:10.327Z,101248.81
2023-05-18T00:22:42.825Z,101251.22
2023-05-18T00:25:11.578Z,101249.31
2023-05-18T00:27:40.371Z,101254.34
2023-05-18T00:30:09.944Z,101250.78
2023-05-18T00:32:38.522Z,101257.50
2023-05-18T00:35:07.790Z,101256.44
2023-05-18T00:37:36.503Z,101251.91
2023-05-18T00:40:07.905Z,101253.44
2023-05-18T00:42:36.489Z,101255.06
2023-05-18T00:45:05.858Z,101254.94
2023-05-18T00:47:34.608Z,101256.56
2023-05-18T00:50:03.524Z,101251.19
2023-05-18T00:52:33.117Z,101253.66
2023-05-18T00:55:01.761Z,101258.72
2023-05-18T00:57:32.248Z,101259.53
2023-05-18T01:00:01.522Z,101247.09
2023-05-18T01:02:30.671Z,101250.56
2023-05-18T01:05:00.737Z,101246.97
2023-05-18T01:07:29.404Z,101252.88
2023-05-18T01:09:58.406Z,101253.66
2023-05-18T01:12:35.793Z,101255.28
2023-05-18T01:15:09.812Z,101249.91
2023-05-18T01:17:47.464Z,101249.75
2023-05-18T01:20:33.621Z,101251.25
2023-05-18T01:23:54.921Z,101255.31
2023-05-18T01:26:30.166Z,101264.63
2023-05-18T01:29:01.278Z,101257.44
2023-05-18T01:31:31.077Z,101263.38
2023-05-18T01:33:59.700Z,101265.75
2023-05-18T01:36:28.686Z,101255.16
2023-05-18T01:39:01.491Z,101250.66
2023-05-18T01:41:33.475Z,101256.53
2023-05-18T01:44:07.305Z,101255.47
2023-05-18T01:46:41.166Z,101253.59
2023-05-18T01:49:18.217Z,101249.91
2023-05-18T01:51:48.139Z,101248.88
2023-05-18T01:54:20.693Z,101247.69
2023-05-18T01:56:53.899Z,101253.47
2023-05-18T01:59:25.038Z,101255.09
2023-05-18T02:01:59.107Z,101249.72
2023-05-18T02:04:28.610Z,101252.97
2023-05-18T02:06:57.807Z,101247.59
2023-05-18T02:09:26.493Z,101256.91
2023-05-18T02:11:56.476Z,101252.44
2023-05-18T02:14:29.824Z,101249.56
2023-05-18T02:16:58.337Z,101248.50
2023-05-18T02:19:26.860Z,101247.47
2023-05-18T02:21:56.192Z,101254.28
2023-05-18T02:24:24.857Z,101255.91
2023-05-18T02:26:53.412Z,101247.03
2023-05-18T02:29:23.403Z,101256.47
2023-05-18T02:31:52.047Z,101255.47
2023-05-18T02:34:22.016Z,101247.50
2023-05-18T02:36:50.580Z,101254.31
2023-05-18T02:39:19.512Z,101250.72
2023-05-18T02:41:48.112Z,101252.34
2023-05-18T02:44:16.784Z,101255.78
2023-05-18T02:46:46.731Z,101257.41
2023-05-18T02:49:15.535Z,101256.41
2023-05-18T02:51:44.601Z,101258.84
2023-05-18T02:54:13.839Z,101260.44
2023-05-18T02:56:43.858Z,101260.38
2023-05-18T02:59:21.119Z,101268.09
2023-05-18T03:01:51.901Z,101265.31
2023-05-18T03:04:26.155Z,101266.94
2023-05-18T03:06:57.471Z,101262.53
2023-05-18T03:09:26.563Z,101264.97
2023-05-18T03:11:56.754Z,101263.97
2023-05-18T03:14:25.471Z,101263.78
2023-05-18T03:16:58.187Z,101262.72
2023-05-18T03:19:28.075Z,101262.47
2023-05-18T03:21:57.898Z,101258.88
2023-05-18T03:24:30.430Z,101279.59
2023-05-18T03:27:01.020Z,101270.81
2023-05-18T03:29:31.488Z,101268.13
2023-05-18T03:32:03.129Z,101272.31
2023-05-18T03:34:31.822Z,101270.38
2023-05-18T03:37:00.857Z,101272.78
2023-05-18T03:39:30.668Z,101265.69
2023-05-18T03:41:59.233Z,101264.59
2023-05-18T03:44:27.928Z,101261.00
2023-05-18T03:46:57.201Z,101262.63
2023-05-18T03:49:27.057Z,101261.63
2023-05-18T03:51:56.455Z,101271.06
2023-05-18T03:54:25.212Z,101272.69
2023-05-18T03:56:54.263Z,101269.97
2023-05-18T03:59:23.111Z,101270.81
2023-05-18T04:01:53.884Z,101272.50
2023-05-18T04:04:27.302Z,101275.91
2023-05-18T04:06:57.613Z,101273.28
2023-05-18T04:09:28.209Z,101273.19
2023-05-18T04:11:56.838Z,101275.78
2023-05-18T04:14:28.210Z,101280.09
2023-05-18T04:16:58.380Z,101277.50
2023-05-18T04:19:27.015Z,101278.31
2023-05-18T04:21:57.002Z,101281.72
2023-05-18T04:24:26.841Z,101281.72
2023-05-18T04:26:59.436Z,101285.25
2023-05-18T04:29:29.101Z,101281.72
2023-05-18T04:32:01.176Z,101284.31
2023-05-18T04:34:31.488Z,101293.94
2023-05-18T04:37:05.499Z,101287.91
2023-05-18T04:39:35.301Z,101292.22
2023-05-18T04:42:09.265Z,101297.53
2023-05-18T04:44:39.118Z,101291.50
2023-05-18T04:47:08.838Z,101300.22
2023-05-18T04:49:38.701Z,101295.13
2023-05-18T04:52:10.415Z,101300.50
2023-05-18T04:54:41.178Z,101299.72
2023-05-18T04:57:10.287Z,101294.56
2023-05-18T04:59:38.897Z,101293.88
2023-05-18T05:02:08.184Z,101295.69
2023-05-18T05:04:36.844Z,101307.97
2023-05-18T05:07:05.941Z,101311.66
2023-05-18T05:09:35.990Z,101301.41
2023-05-18T05:12:05.072Z,101306.81
2023-05-18T05:14:33.677Z,101305.28
2023-05-18T05:17:02.282Z,101301.06
2023-05-18T05:19:33.894Z,101307.34
2023-05-18T05:22:02.552Z,101303.25
2023-05-18T05:24:31.523Z,101302.53
2023-05-18T05:27:01.449Z,101302.69
2023-05-18T05:29:29.969Z,101301.97
2023-05-18T05:31:59.344Z,101310.06
2023-05-18T05:34:28.598Z,101309.34
2023-05-18T05:36:58.020Z,101313.00
2023-05-18T05:39:30.224Z,101303.75
2023-05-18T05:41:58.796Z,101297.81
2023-05-18T05:44:29.061Z,101302.53
2023-05-18T05:46:57.563Z,101298.38
2023-05-18T05:49:26.937Z,101299.41
2023-05-18T05:51:55.666Z,101304.84
2023-05-18T05:54:24.298Z,101303.41
2023-05-18T05:56:53.033Z,101311.47
2023-05-18T05:59:22.378Z,101313.44
2023-05-18T06:01:52.496Z,101311.00
2023-05-18T06:04:22.152Z,101312.16
2023-05-18T06:06:51.193Z,101308.91
2023-05-18T06:09:19.765Z,101317.00
2023-05-18T06:11:48.812Z,101312.94
2023-05-18T06:14:17.329Z,101310.50
2023-05-18T06:16:46.325Z,101313.47
2023-05-18T06:19:16.992Z,101312.78
2023-05-18T06:21:45.575Z,101309.66
2023-05-18T06:24:14.566Z,101315.97
2023-05-18T06:26:55.620Z,101315.31
2023-05-18T06:29:42.942Z,101323.56
2023-05-18T06:32:46.877Z,101316.88
2023-05-18T06:35:17.206Z,101319.75
2023-05-18T06:37:47.075Z,101320.06
2023-05-18T06:40:16.156Z,101324.72
2023-05-18T06:42:44.940Z,101329.41
2023-05-18T06:45:26.910Z,101328.91
2023-05-18T06:48:01.275Z,101331.84
2023-05-18T06:50:32.628Z,101332.97
2023-05-18T06:53:04.613Z,101339.34
2023-05-18T06:55:33.300Z,101335.19
2023-05-18T06:58:02.841Z,101332.81
2023-05-18T07:00:31.512Z,101332.25
2023-05-18T07:03:00.215Z,101327.19
2023-05-18T07:05:30.295Z,101331.81
2023-05-18T07:08:00.532Z,101332.94
2023-05-18T07:10:29.070Z,101332.34
2023-05-18T07:12:58.045Z,101334.41
2023-05-18T07:15:27.053Z,101338.22
2023-05-18T07:17:55.730Z,101338.47
2023-05-18T07:20:26.460Z,101337.88
2023-05-18T07:22:56.308Z,101342.53
2023-05-18T07:25:27.092Z,101334.97
2023-05-18T07:27:56.702Z,101330.88
2023-05-18T07:30:26.462Z,101342.56
2023-05-18T07:32:56.751Z,101337.63
2023-05-18T07:35:28.379Z,101343.16
2023-05-18T07:37:57.535Z,101335.56
2023-05-18T07:40:27.912Z,101341.06
2023-05-18T07:42:59.288Z,101325.69
2023-05-18T07:45:28.189Z,101332.09
2023-05-18T07:47:57.810Z,101331.47
2023-05-18T07:50:26.944Z,101335.28
2023-05-18T07:52:55.549Z,101330.31
2023-05-18T07:55:24.235Z,101323.59
2023-05-18T07:57:54.486Z,101330.06
2023-05-18T08:00:23.565Z,101318.94
2023-05-18T08:02:53.097Z,101321.00
2023-05-18T08:05:22.799Z,101323.91
2023-05-18T08:07:54.034Z,101325.00
2023-05-18T08:10:22.990Z,101311.38
2023-05-18T08:12:51.988Z,101315.97
2023-05-18T08:15:25.103Z,101318.06
2023-05-18T08:17:55.234Z,101308.75
2023-05-18T08:20:25.753Z,101307.38
2023-05-18T08:22:56.347Z,101306.00
2023-05-18T08:25:26.690Z,101308.97
2023-05-18T08:27:55.532Z,101307.47
2023-05-18T08:30:26.908Z,101307.78
2023-05-18T08:32:55.698Z,101301.81
2023-05-18T08:35:24.517Z,101299.34
2023-05-18T08:37:53.309Z,101305.69
2023-05-18T08:40:22.743Z,101301.53
2023-05-18T08:42:59.348Z,101300.00
2023-05-18T08:45:39.837Z,101294.97
2023-05-18T08:48:10.749Z,101298.84
2023-05-18T08:50:45.005Z,101301.72
2023-05-18T08:53:14.478Z,101291.44
2023-05-18T08:55:45.023Z,101286.50
2023-05-18T08:58:17.047Z,101297.19
2023-05-18T09:00:47.181Z,101293.81
2023-05-18T09:03:15.891Z,101294.03
2023-05-18T09:05:44.687Z,101293.44
2023-05-18T09:08:14.285Z,101287.50
2023-05-18T09:10:42.891Z,101296.44
2023-05-18T09:13:13.522Z,101293.09
2023-05-18T09:15:42.187Z,101295.13
2023-05-18T09:18:12.328Z,101288.31
2023-05-18T09:20:41.147Z,101291.09
2023-05-18T09:23:11.982Z,101293.03
2023-05-18T09:25:44.810Z,101281.06
2023-05-18T09:28:14.873Z,101290.03
2023-05-18T09:30:48.120Z,101295.53
2023-05-18T09:33:21.709Z,101295.75
2023-05-18T09:35:51.990Z,101279.31
2023-05-18T09:38:23.395Z,101286.59
2023-05-18T09:40:52.332Z,101278.00
2023-05-18T09:43:22.007Z,101281.69
2023-05-18T09:45:50.903Z,101282.69
2023-05-18T09:48:24.844Z,101287.16
2023-05-18T09:50:53.898Z,101285.38
2023-05-18T09:53:22.495Z,101286.34
2023-05-18T09:55:51.474Z,101294.31
2023-05-18T09:58:20.108Z,101287.44
2023-05-18T10:00:51.833Z,101286.72
2023-05-18T10:03:24.010Z,101287.84
2023-05-18T10:05:53.279Z,101281.94
2023-05-18T10:08:21.962Z,101281.22
2023-05-18T10:10:51.045Z,101269.13
2023-05-18T10:13:20.060Z,101277.34
2023-05-18T10:15:50.851Z,101266.19
2023-05-18T10:18:25.081Z,101281.38
2023-05-18T10:20:55.968Z,101279.00
2023-05-18T10:23:27.945Z,101267.03
2023-05-18T10:25:56.429Z,101263.69
2023-05-18T10:28:28.970Z,101257.78
2023-05-18T10:30:59.180Z,101253.50
2023-05-18T10:33:32.057Z,101255.41
2023-05-18T10:36:03.822Z,101255.50
2023-05-18T10:38:34.220Z,101253.97
2023-05-18T10:41:03.848Z,101248.13
2023-05-18T10:43:35.306Z,101248.34
2023-05-18T10:46:04.184Z,101250.34
2023-05-18T10:48:39.627Z,101242.59
2023-05-18T10:51:08.992Z,101243.69
2023-05-18T10:53:40.262Z,101243.03
2023-05-18T10:56:09.195Z,101241.50
2023-05-18T10:58:39.749Z,101240.69
2023-05-18T11:01:11.532Z,101236.31
2023-05-18T11:03:42.179Z,101240.78
2023-05-18T11:06:12.956Z,101233.97
2023-05-18T11:08:48.225Z,101249.25
2023-05-18T11:11:19.473Z,101239.06
2023-05-18T11:13:50.599Z,101227.03
2023-05-18T11:16:19.953Z,101230.88
2023-05-18T11:18:51.390Z,101227.44
2023-05-18T11:21:32.522Z,101227.44
2023-05-18T11:24:24.907Z,101230.28
2023-05-18T11:26:55.189Z,101222.47
2023-05-18T11:29:26.004Z,101224.34
2023-05-18T11:31:55.946Z,101217.59
2023-05-18T11:34:48.164Z,101220.63
2023-05-18T11:37:18.931Z,101223.59
2023-05-18T11:39:59.708Z,101219.50
2023-05-18T11:42:34.595Z,101218.97
2023-05-18T11:45:11.140Z,101204.16
2023-05-18T11:47:41.551Z,101198.22
2023-05-18T11:50:13.181Z,101202.00
2023-05-18T11:52:48.065Z,101213.66
2023-05-18T11:55:19.281Z,101206.78
2023-05-18T11:57:52.560Z,101199.00
2023-05-18T12:00:22.618Z,101195.53
2023-05-18T12:02:52.720Z,101194.69
2023-05-18T12:05:23.353Z,101192.97
2023-05-18T12:07:54.683Z,101187.84
2023-05-18T12:10:23.921Z,101194.28
2023-05-18T12:12:54.079Z,101194.59
2023-05-18T12:15:24.026Z,101191.31
2023-05-18T12:17:53.225Z,101175.63
2023-05-18T12:20:25.161Z,101182.84
2023-05-18T12:22:55.975Z,101184.81
2023-05-18T12:25:26.735Z,101173.56
2023-05-18T12:27:56.926Z,101173.66
2023-05-18T12:30:34.847Z,101176.22
2023-05-18T12:33:04.621Z,101178.03
2023-05-18T12:35:34.900Z,101167.38
2023-05-18T12:38:03.597Z,101165.59
2023-05-18T12:40:44.446Z,101171.03
2023-05-18T12:43:14.143Z,101170.38
2023-05-18T12:45:45.631Z,101171.31
2023-05-18T12:48:15.070Z,101168.81
2023-05-18T12:50:55.593Z,101160.09
2023-05-18T12:53:24.564Z,101164.50
2023-05-18T12:56:04.301Z,101161.09
2023-05-18T12:58:33.037Z,101152.47
2023-05-18T13:01:08.930Z,101149.09
2023-05-18T13:03:40.803Z,101153.66
2023-05-18T13:06:11.229Z,101153.00
2023-05-18T13:08:39.879Z,101160.28
2023-05-18T13:11:14.809Z,101146.25
2023-05-18T13:13:59.165Z,101139.28
2023-05-18T13:16:30.132Z,101135.81
2023-05-18T13:19:00.686Z,101145.56
2023-05-18T13:21:31.241Z,101129.63
2023-05-18T13:23:59.839Z,101138.56
2023-05-18T13:26:28.656Z,101128.91
2023-05-18T13:28:58.488Z,101135.97
2023-05-18T13:31:27.245Z,101129.78
2023-05-18T13:33:55.907Z,101132.50
2023-05-18T13:36:24.617Z,101121.97
2023-05-18T13:38:54.643Z,101123.81
2023-05-18T13:41:23.478Z,101112.34
2023-05-18T13:43:52.281Z,101114.16
2023-05-18T13:46:21.035Z,101123.91
2023-05-18T13:48:49.553Z,101116.88
2023-05-18T13:51:21.023Z,101109.81
2023-05-18T13:53:49.621Z,101103.66
2023-05-18T13:56:19.630Z,101094.81
2023-05-18T13:58:50.174Z,101096.63
2023-05-18T14:01:19.055Z,101092.16
2023-05-18T14:03:47.751Z,101089.47
2023-05-18T14:06:17.149Z,101087.69
2023-05-18T14:08:45.686Z,101085.97
2023-05-18T14:11:14.355Z,101093.03
2023-05-18T14:13:44.222Z,101080.56
2023-05-18T14:16:12.846Z,101077.94
2023-05-18T14:18:41.449Z,101078.78
2023-05-18T14:21:10.005Z,101072.53
2023-05-18T14:23:38.600Z,101076.03
2023-05-18T14:26:07.317Z,101082.19
2023-05-18T14:28:36.025Z,101067.03
2023-05-18T14:31:06.134Z,101063.41
2023-05-18T14:33:34.742Z,101070.44
2023-05-18T14:36:03.288Z,101072.13
2023-05-18T14:38:31.852Z,101059.53
2023-05-18T14:41:00.329Z,101059.53
2023-05-18T14:43:28.866Z,101049.78
2023-05-18T14:46:08.175Z,101054.34
2023-05-18T14:48:38.921Z,101052.59
2023-05-18T14:51:07.573Z,101062.31
2023-05-18T14:53:36.086Z,101061.31
2023-05-18T14:56:08.469Z,101066.53
2023-05-18T14:58:37.569Z,101063.75
2023-05-18T15:01:06.261Z,101061.88
2023-05-18T15:03:35.094Z,101060.88
2023-05-18T15:06:05.427Z,101060.75
2023-05-18T15:08:34.052Z,101058.78
2023-05-18T15:11:02.680Z,101052.34
2023-05-18T15:13:31.927Z,101063.72
2023-05-18T15:16:00.707Z,101056.63
2023-05-18T15:18:29.321Z,101045.88
2023-05-18T15:20:57.907Z,101055.78
2023-05-18T15:23:27.845Z,101064.75
2023-05-18T15:25:56.699Z,101061.00
2023-05-18T15:28:25.438Z,101067.03
2023-05-18T15:30:54.555Z,101056.09
2023-05-18T15:33:23.148Z,101050.59
2023-05-18T15:35:51.794Z,101041.69
2023-05-18T15:38:20.521Z,101046.97
2023-05-18T15:40:51.258Z,101052.28
2023-05-18T15:43:22.461Z,101046.03
2023-05-18T15:45:51.834Z,101044.34
2023-05-18T15:48:20.392Z,101047.94
2023-05-18T15:50:49.058Z,101040.78
2023-05-18T15:53:17.764Z,101040.69
2023-05-18T15:55:46.321Z,101033.47
2023-05-18T15:58:16.422Z,101038.81
2023-05-18T16:00:45.821Z,101039.75
2023-05-18T16:03:14.484Z,101037.06
2023-05-18T16:05:43.102Z,101031.72
2023-05-18T16:08:11.773Z,101029.03
2023-05-18T16:10:40.440Z,101023.59
2023-05-18T16:13:09.038Z,101028.91
2023-05-18T16:15:39.083Z,101026.44
2023-05-18T16:18:07.860Z,101029.44
2023-05-18T16:20:36.433Z,101018.06
2023-05-18T16:23:05.063Z,101022.69
2023-05-18T16:25:33.671Z,101024.56
2023-05-18T16:28:02.215Z,101022.78
2023-05-18T16:30:30.973Z,101024.53
2023-05-18T16:33:01.143Z,101031.56
2023-05-18T16:35:31.837Z,101030.69
2023-05-18T16:38:00.490Z,101026.28
2023-05-18T16:40:29.084Z,101028.22
2023-05-18T16:42:57.754Z,101032.81
2023-05-18T16:45:27.903Z,101025.78
2023-05-18T16:47:56.797Z,101028.53
2023-05-18T16:50:27.905Z,101033.06
2023-05-18T16:52:56.683Z,101034.16
2023-05-18T16:55:25.834Z,101032.56
2023-05-18T16:57:54.434Z,101026.38
2023-05-18T17:00:23.551Z,101025.50
2023-05-18T17:02:53.413Z,101033.50
2023-05-18T17:05:23.063Z,101024.66
2023-05-18T17:07:53.906Z,101029.09
2023-05-18T17:10:22.918Z,101029.13
2023-05-18T17:12:51.799Z,101026.53
2023-05-18T17:15:20.595Z,101022.13
2023-05-18T17:17:49.318Z,101014.22
2023-05-18T17:20:17.998Z,101019.63
2023-05-18T17:22:47.234Z,101013.47
2023-05-18T17:25:17.354Z,101017.13
2023-05-18T17:27:46.208Z,101013.66
2023-05-18T17:30:15.181Z,101015.44
2023-05-18T17:32:50.806Z,101013.72
2023-05-18T17:35:19.909Z,101010.25
2023-05-18T17:37:48.938Z,101006.78
2023-05-18T17:40:19.092Z,101006.84
2023-05-18T17:42:47.782Z,101007.81
2023-05-18T17:45:18.180Z,101014.06
2023-05-18T17:47:47.128Z,101017.63
2023-05-18T17:50:15.742Z,101014.06
2023-05-18T17:52:44.650Z,101024.72
2023-05-18T17:55:15.015Z,101020.25
2023-05-18T17:57:46.942Z,101019.34
2023-05-18T18:00:17.609Z,101021.06
2023-05-18T18:02:46.367Z,101025.44
2023-05-18T18:05:15.048Z,101024.50
2023-05-18T18:07:43.696Z,101019.09
2023-05-18T18:10:12.746Z,101027.84
2023-05-18T18:12:41.634Z,101023.34
2023-05-18T18:15:13.427Z,101030.34
2023-05-18T18:17:42.044Z,101025.84
2023-05-18T18:20:13.794Z,101024.84
2023-05-18T18:22:42.570Z,101027.38
2023-05-18T18:25:11.387Z,101022.81
2023-05-18T18:27:40.197Z,101022.72
2023-05-18T18:30:09.822Z,101027.94
2023-05-18T18:32:39.873Z,101036.63
2023-05-18T18:35:09.242Z,101028.59
2023-05-18T18:37:38.541Z,101035.53
2023-05-18T18:40:08.473Z,101030.13
2023-05-18T18:42:37.048Z,101035.34
2023-05-18T18:45:06.651Z,101039.63
2023-05-18T18:47:35.415Z,101036.81
2023-05-18T18:50:06.782Z,101043.78
2023-05-18T18:52:35.534Z,101033.97
2023-05-18T18:55:04.892Z,101043.63
2023-05-18T18:57:34.277Z,101034.69
2023-05-18T19:00:03.143Z,101033.63
2023-05-18T19:02:32.135Z,101040.56
2023-05-18T19:05:01.916Z,101039.53
2023-05-18T19:07:32.057Z,101041.16
2023-05-18T19:10:00.750Z,101047.22
2023-05-18T19:12:29.333Z,101047.09
2023-05-18T19:14:58.209Z,101061.03
2023-05-18T19:17:27.041Z,101052.88
2023-05-18T19:19:55.786Z,101049.22
2023-05-18T19:22:24.564Z,101046.47
2023-05-18T19:24:54.665Z,101050.72
2023-05-18T19:27:23.339Z,101055.03
2023-05-18T19:29:52.314Z,101058.38
2023-05-18T19:32:21.292Z,101060.03
2023-05-18T19:34:49.951Z,101058.97
2023-05-18T19:37:18.994Z,101064.16
2023-05-18T19:39:47.987Z,101064.03
2023-05-18T19:42:18.612Z,101067.44
2023-05-18T19:44:47.772Z,101068.16
2023-05-18T19:47:16.942Z,101079.44
2023-05-18T19:49:46.353Z,101081.94
2023-05-18T19:52:17.521Z,101078.28
2023-05-18T19:54:46.254Z,101086.06
2023-05-18T19:57:14.841Z,101091.19
2023-05-18T19:59:44.832Z,101095.47
2023-05-18T20:02:13.431Z,101090.03
2023-05-18T20:04:43.266Z,101098.66
2023-05-18T20:07:12.872Z,101097.59
2023-05-18T20:09:41.797Z,101098.34
2023-05-18T20:12:10.588Z,101100.00
2023-05-18T20:14:39.647Z,101097.25
2023-05-18T20:17:09.701Z,101090.91
2023-05-18T20:19:45.461Z,101100.38
2023-05-18T20:22:14.040Z,101094.06
2023-05-18T20:24:44.566Z,101098.31
2023-05-18T20:27:15.150Z,101099.03
2023-05-18T20:29:51.079Z,101110.31
2023-05-18T20:32:21.201Z,101100.44
2023-05-18T20:34:49.871Z,101102.06
2023-05-18T20:37:19.623Z,101106.41
2023-05-18T20:39:51.003Z,101104.56
2023-05-18T20:42:22.090Z,101107.13
2023-05-18T20:44:52.567Z,101105.25
2023-05-18T20:47:22.796Z,101105.06
2023-05-18T20:49:59.112Z,101103.19
2023-05-18T20:52:27.658Z,101111.00
2023-05-18T20:54:56.343Z,101110.00
2023-05-18T20:57:24.824Z,101109.03
2023-05-18T20:59:53.350Z,101105.47
2023-05-18T21:02:23.455Z,101108.84
2023-05-18T21:04:52.626Z,101121.00
2023-05-18T21:07:21.215Z,101113.81
2023-05-18T21:09:49.743Z,101113.63
2023-05-18T21:12:18.289Z,101115.31
2023-05-18T21:14:46.936Z,101122.25
2023-05-18T21:17:18.452Z,101119.53
2023-05-18T21:19:48.456Z,101115.88
2023-05-18T21:22:17.012Z,101114.91
2023-05-18T21:24:45.660Z,101109.50
2023-05-18T21:27:14.268Z,101116.47
2023-05-18T21:29:43.426Z,101115.47
2023-05-18T21:32:12.063Z,101117.13
2023-05-18T21:34:42.815Z,101114.31
2023-05-18T21:37:13.911Z,101120.34
2023-05-18T21:39:44.005Z,101116.69
2023-05-18T21:42:12.545Z,101121.81
2023-05-18T21:44:41.085Z,101127.88
2023-05-18T21:47:10.080Z,101119.00
2023-05-18T21:49:38.680Z,101126.69
2023-05-18T21:52:07.227Z,101123.06
2023-05-18T21:54:40.472Z,101122.09
2023-05-18T21:57:09.372Z,101125.44
2023-05-18T21:59:37.953Z,101125.34
2023-05-18T22:02:06.765Z,101123.47
2023-05-18T22:04:35.435Z,101122.50
2023-05-18T22:07:04.198Z,101123.25
2023-05-18T22:09:32.735Z,101124.03
2023-05-18T22:12:02.640Z,101126.59
2023-05-18T22:14:31.508Z,101129.13
2023-05-18T22:17:00.301Z,101126.41
2023-05-18T22:19:29.214Z,101126.31
2023-05-18T22:21:57.896Z,101120.06
2023-05-18T22:24:26.714Z,101119.06
2023-05-18T22:26:55.255Z,101125.13
2023-05-18T22:29:25.679Z,101122.44
2023-05-18T22:31:54.318Z,101124.09
2023-05-18T22:34:22.866Z,101120.50
2023-05-18T22:36:51.444Z,101122.09
2023-05-18T22:39:19.988Z,101120.34
2023-05-18T22:41:48.428Z,101123.75
2023-05-18T22:44:17.042Z,101124.53
2023-05-18T22:46:47.273Z,101131.47
2023-05-18T22:49:16.146Z,101129.63
2023-05-18T22:51:45.790Z,101126.91
2023-05-18T22:54:14.395Z,101131.16
2023-05-18T22:56:43.165Z,101126.69
2023-05-18T22:59:11.989Z,101124.84
2023-05-18T23:01:40.711Z,101128.22
2023-05-18T23:04:13.186Z,101126.41
2023-05-18T23:06:42.296Z,101128.09
2023-05-18T23:09:10.847Z,101131.56
2023-05-18T23:11:39.946Z,101133.22
2023-05-18T23:14:09.987Z,101126.16
2023-05-18T23:16:42.557Z,101126.09
2023-05-18T23:19:13.751Z,101134.69
2023-05-18T23:21:42.387Z,101124.03
2023-05-18T23:24:12.217Z,101127.44
2023-05-18T23:26:42.388Z,101125.59
2023-05-18T23:29:11.261Z,101126.38
2023-05-18T23:31:39.806Z,101124.44
2023-05-18T23:34:08.900Z,101120.78
2023-05-18T23:36:42.577Z,101123.31
2023-05-18T23:39:11.908Z,101116.16
2023-05-18T23:41:41.503Z,101123.09
2023-05-18T23:44:10.635Z,101122.06
2023-05-18T23:46:40.076Z,101121.97
2023-05-18T23:49:09.406Z,101118.31
2023-05-18T23:51:40.325Z,101112.16
2023-05-18T23:54:09.896Z,101115.47
2023-05-18T23:56:38.895Z,101118.88
2023-05-18T23:59:07.946Z,101116.09
